WJA2908 CYEG-MDPC
Flight info
| Callsign | WJA2908 |
|---|---|
| Flight time | N/A |
| Altitude | 36000 |
| Route | CYEG OMVOL MIPOT FUDGY SEFFY CHACE IGAME KI57M OMARR NRRSE ROTHM RENAH GTK SHRUM BEREL AGNAL VOLID RIKIK MDPC |
| Aircraft | B738/M-V/N |
Departure
| Time | 2026-04-30 17:48 |
|---|---|
| Airport | Edmonton International Airport (CYEG) |
Arrival
| Time | N/A |
|---|---|
| Airport | Punta Cana International Airport (MDPC) |
| Time | Latitude | Longitude | Altitude | Speed | Heading |
|---|---|---|---|---|---|
| 2026-04-30 17:39 | 53.30400 | -113.58344 | 2386 ft | 18 kts | 135° |
| 2026-04-30 17:41 | 53.29878 | -113.57842 | 2385 ft | 10 kts | 135° |
| 2026-04-30 17:42 | 53.29785 | -113.57685 | 2386 ft | 9 kts | 134° |
| 2026-04-30 17:42 | 53.29619 | -113.57410 | 2387 ft | 18 kts | 135° |
| 2026-04-30 17:43 | 53.29453 | -113.57132 | 2385 ft | 16 kts | 135° |
| 2026-04-30 17:44 | 53.29225 | -113.56749 | 2386 ft | 15 kts | 135° |
| 2026-04-30 17:44 | 53.29025 | -113.56414 | 2384 ft | 13 kts | 135° |
| 2026-04-30 17:46 | 53.28765 | -113.56246 | 2385 ft | 0 kts | 190° |
| 2026-04-30 17:47 | 53.28995 | -113.56843 | 2380 ft | 79 kts | 315° |
| 2026-04-30 17:48 | 53.32419 | -113.62606 | 2966 ft | 241 kts | 313° |
| 2026-04-30 17:48 | 53.36817 | -113.69505 | 3707 ft | 342 kts | 331° |
| 2026-04-30 17:49 | 53.44922 | -113.63667 | 6552 ft | 378 kts | 70° |
| 2026-04-30 17:50 | 53.41721 | -113.48880 | 8976 ft | 396 kts | 131° |
| 2026-04-30 17:51 | 53.35497 | -113.37239 | 10882 ft | 407 kts | 131° |
| 2026-04-30 17:52 | 53.30356 | -113.27837 | 12133 ft | 415 kts | 131° |
| 2026-04-30 17:53 | 53.21829 | -113.07982 | 14230 ft | 429 kts | 120° |
| 2026-04-30 17:54 | 53.15807 | -112.90555 | 15689 ft | 438 kts | 116° |
| 2026-04-30 17:55 | 53.09927 | -112.72531 | 17079 ft | 447 kts | 116° |
| 2026-04-30 17:56 | 53.03943 | -112.54210 | 18356 ft | 455 kts | 114° |
| 2026-04-30 17:57 | 52.99683 | -112.39990 | 19186 ft | 461 kts | 113° |
| 2026-04-30 17:58 | 52.95409 | -112.25593 | 20018 ft | 466 kts | 113° |
| 2026-04-30 17:59 | 52.89626 | -112.06232 | 21007 ft | 472 kts | 113° |
| 2026-04-30 18:00 | 52.83741 | -111.86708 | 21959 ft | 478 kts | 112° |
| 2026-04-30 18:00 | 52.79234 | -111.71872 | 22591 ft | 484 kts | 112° |
| 2026-04-30 18:01 | 52.76196 | -111.61927 | 23036 ft | 486 kts | 112° |
| 2026-04-30 18:02 | 52.71603 | -111.46940 | 23654 ft | 490 kts | 112° |
| 2026-04-30 18:02 | 52.66964 | -111.31865 | 24164 ft | 493 kts | 112° |
| 2026-04-30 18:03 | 52.62115 | -111.16817 | 24644 ft | 497 kts | 114° |
| 2026-04-30 18:04 | 52.57137 | -111.01865 | 25105 ft | 500 kts | 114° |
| 2026-04-30 18:05 | 52.50411 | -110.81773 | 25585 ft | 503 kts | 114° |
| 2026-04-30 18:06 | 52.43646 | -110.61606 | 25903 ft | 505 kts | 114° |
| 2026-04-30 18:07 | 52.36854 | -110.41388 | 26110 ft | 507 kts | 114° |
| 2026-04-30 18:08 | 52.31762 | -110.26259 | 26327 ft | 506 kts | 114° |
| 2026-04-30 18:09 | 52.24970 | -110.06144 | 26566 ft | 506 kts | 114° |
| 2026-04-30 18:10 | 52.18195 | -109.86155 | 26858 ft | 505 kts | 114° |
| 2026-04-30 18:11 | 52.11391 | -109.66138 | 27146 ft | 504 kts | 114° |
| 2026-04-30 18:11 | 52.06300 | -109.51202 | 27358 ft | 503 kts | 113° |
| 2026-04-30 18:12 | 52.01796 | -109.35919 | 27565 ft | 499 kts | 109° |
| 2026-04-30 18:13 | 51.98917 | -109.25667 | 27692 ft | 499 kts | 108° |
| 2026-04-30 18:13 | 51.95105 | -109.12054 | 27926 ft | 497 kts | 108° |
| 2026-04-30 18:14 | 51.91777 | -109.00193 | 28100 ft | 497 kts | 108° |
| 2026-04-30 18:15 | 51.87475 | -108.84916 | 28335 ft | 496 kts | 108° |
| 2026-04-30 18:15 | 51.83169 | -108.69692 | 28578 ft | 495 kts | 108° |
| 2026-04-30 18:16 | 51.80297 | -108.59581 | 28744 ft | 495 kts | 108° |
| 2026-04-30 18:16 | 51.77420 | -108.49479 | 28897 ft | 494 kts | 108° |
| 2026-04-30 18:17 | 51.76001 | -108.44508 | 29067 ft | 492 kts | 108° |
| 2026-04-30 18:17 | 51.74549 | -108.39437 | 29232 ft | 490 kts | 108° |
| 2026-04-30 18:17 | 51.71702 | -108.29525 | 29564 ft | 487 kts | 108° |
| 2026-04-30 18:18 | 51.70279 | -108.24588 | 29744 ft | 486 kts | 108° |
| 2026-04-30 18:18 | 51.68857 | -108.19667 | 29904 ft | 485 kts | 108° |
| 2026-04-30 18:18 | 51.67432 | -108.14742 | 30080 ft | 484 kts | 108° |
| 2026-04-30 18:18 | 51.66015 | -108.09854 | 30253 ft | 483 kts | 108° |
| 2026-04-30 18:19 | 51.64590 | -108.04952 | 30402 ft | 482 kts | 108° |
| 2026-04-30 18:19 | 51.63164 | -108.00051 | 30562 ft | 481 kts | 108° |
| 2026-04-30 18:19 | 51.61748 | -107.95200 | 30706 ft | 480 kts | 107° |
| 2026-04-30 18:19 | 51.60325 | -107.90334 | 30877 ft | 479 kts | 107° |
| 2026-04-30 18:20 | 51.58906 | -107.85488 | 31006 ft | 478 kts | 107° |
| 2026-04-30 18:20 | 51.57485 | -107.80645 | 31160 ft | 477 kts | 107° |
| 2026-04-30 18:20 | 51.56084 | -107.75880 | 31310 ft | 477 kts | 107° |
| 2026-04-30 18:20 | 51.54667 | -107.71066 | 31460 ft | 476 kts | 107° |
| 2026-04-30 18:21 | 51.53237 | -107.66217 | 31625 ft | 475 kts | 107° |
| 2026-04-30 18:21 | 51.51839 | -107.61482 | 31761 ft | 474 kts | 107° |
| 2026-04-30 18:21 | 51.50432 | -107.56723 | 31927 ft | 474 kts | 107° |
| 2026-04-30 18:21 | 51.49008 | -107.51915 | 32083 ft | 473 kts | 107° |
| 2026-04-30 18:22 | 51.47597 | -107.47157 | 32241 ft | 472 kts | 107° |
| 2026-04-30 18:22 | 51.44780 | -107.37682 | 32555 ft | 471 kts | 107° |
| 2026-04-30 18:22 | 51.43378 | -107.32975 | 32716 ft | 470 kts | 107° |
| 2026-04-30 18:23 | 51.41980 | -107.28288 | 32869 ft | 469 kts | 107° |
| 2026-04-30 18:23 | 51.40558 | -107.23530 | 33035 ft | 468 kts | 107° |
| 2026-04-30 18:23 | 51.39168 | -107.18888 | 33191 ft | 467 kts | 107° |
| 2026-04-30 18:23 | 51.37762 | -107.14204 | 33354 ft | 466 kts | 107° |
| 2026-04-30 18:24 | 51.34963 | -107.04904 | 33694 ft | 464 kts | 107° |
| 2026-04-30 18:24 | 51.33553 | -107.00237 | 33860 ft | 463 kts | 107° |
| 2026-04-30 18:24 | 51.32153 | -106.95619 | 34024 ft | 462 kts | 107° |
| 2026-04-30 18:25 | 51.30758 | -106.91029 | 34190 ft | 461 kts | 107° |
| 2026-04-30 18:25 | 51.27939 | -106.81787 | 34487 ft | 459 kts | 107° |
| 2026-04-30 18:25 | 51.26560 | -106.77261 | 34624 ft | 457 kts | 107° |
| 2026-04-30 18:26 | 51.23782 | -106.68095 | 34911 ft | 454 kts | 107° |
| 2026-04-30 18:26 | 51.22420 | -106.63573 | 35067 ft | 453 kts | 107° |
| 2026-04-30 18:26 | 51.21080 | -106.59110 | 35190 ft | 451 kts | 107° |
| 2026-04-30 18:27 | 51.18399 | -106.50120 | 35483 ft | 447 kts | 107° |
| 2026-04-30 18:27 | 51.17071 | -106.45635 | 35627 ft | 445 kts | 107° |
| 2026-04-30 18:28 | 51.14459 | -106.36750 | 35914 ft | 440 kts | 107° |
| 2026-04-30 18:28 | 51.13178 | -106.32363 | 36056 ft | 438 kts | 107° |
| 2026-04-30 18:28 | 51.10620 | -106.23513 | 36095 ft | 440 kts | 107° |
| 2026-04-30 18:29 | 51.05518 | -106.05651 | 36105 ft | 446 kts | 106° |
| 2026-04-30 18:30 | 51.00399 | -105.87565 | 36109 ft | 452 kts | 106° |
| 2026-04-30 18:31 | 50.96559 | -105.73889 | 36103 ft | 456 kts | 106° |
| 2026-04-30 18:32 | 50.92689 | -105.59994 | 36104 ft | 460 kts | 106° |
| 2026-04-30 18:33 | 50.88388 | -105.46250 | 36087 ft | 480 kts | 124° |
| 2026-04-30 18:33 | 50.80928 | -105.35444 | 36094 ft | 498 kts | 141° |
| 2026-04-30 18:34 | 50.71949 | -105.27003 | 36126 ft | 504 kts | 146° |
| 2026-04-30 18:35 | 50.65813 | -105.21486 | 36121 ft | 506 kts | 146° |
| 2026-04-30 18:35 | 50.59665 | -105.15979 | 36115 ft | 508 kts | 146° |
| 2026-04-30 18:36 | 50.50629 | -105.07888 | 36096 ft | 509 kts | 146° |
| 2026-04-30 18:37 | 50.41393 | -104.99599 | 36084 ft | 510 kts | 146° |
| 2026-04-30 18:37 | 50.36253 | -104.94974 | 36082 ft | 510 kts | 146° |
| 2026-04-30 18:38 | 50.30126 | -104.89450 | 36085 ft | 510 kts | 146° |
| 2026-04-30 18:38 | 50.22970 | -104.82978 | 36088 ft | 510 kts | 146° |
| 2026-04-30 18:39 | 50.17888 | -104.78207 | 36101 ft | 508 kts | 144° |
| 2026-04-30 18:39 | 50.11917 | -104.72418 | 36114 ft | 508 kts | 143° |
| 2026-04-30 18:40 | 50.06358 | -104.65812 | 36149 ft | 498 kts | 130° |
| 2026-04-30 18:40 | 50.01491 | -104.58179 | 36135 ft | 497 kts | 129° |
| 2026-04-30 18:41 | 49.96683 | -104.50383 | 36127 ft | 497 kts | 128° |
| 2026-04-30 18:41 | 49.92325 | -104.42171 | 36135 ft | 490 kts | 120° |
| 2026-04-30 18:42 | 49.88408 | -104.33591 | 36123 ft | 489 kts | 119° |
| 2026-04-30 18:42 | 49.82600 | -104.20580 | 36114 ft | 489 kts | 119° |
| 2026-04-30 18:45 | 49.58330 | -103.76039 | 36120 ft | 495 kts | 128° |
| 2026-04-30 18:46 | 49.53730 | -103.68156 | 36120 ft | 495 kts | 128° |
| 2026-04-30 18:46 | 49.49145 | -103.60266 | 36126 ft | 495 kts | 128° |
| 2026-04-30 18:47 | 49.44585 | -103.52385 | 36126 ft | 494 kts | 128° |
| 2026-04-30 18:47 | 49.40033 | -103.44482 | 36124 ft | 494 kts | 128° |
| 2026-04-30 18:48 | 49.35498 | -103.36575 | 36115 ft | 494 kts | 128° |
| 2026-04-30 18:48 | 49.30959 | -103.28625 | 36100 ft | 494 kts | 127° |
| 2026-04-30 18:49 | 49.26452 | -103.20696 | 36088 ft | 493 kts | 127° |
| 2026-04-30 18:49 | 49.22027 | -103.12873 | 36078 ft | 493 kts | 127° |
| 2026-04-30 18:50 | 49.17519 | -103.04864 | 36081 ft | 493 kts | 127° |
| 2026-04-30 18:50 | 49.13072 | -102.96920 | 36074 ft | 493 kts | 127° |
| 2026-04-30 18:51 | 49.08639 | -102.88963 | 36083 ft | 493 kts | 127° |
| 2026-04-30 18:51 | 49.04158 | -102.80991 | 36094 ft | 493 kts | 128° |
| 2026-04-30 18:52 | 48.99629 | -102.73208 | 36102 ft | 493 kts | 129° |
| 2026-04-30 18:52 | 48.95064 | -102.65402 | 36106 ft | 493 kts | 129° |
| 2026-04-30 18:53 | 48.90497 | -102.57659 | 36106 ft | 493 kts | 129° |
| 2026-04-30 18:53 | 48.85886 | -102.49937 | 36110 ft | 493 kts | 130° |
| 2026-04-30 18:54 | 48.81262 | -102.42200 | 36102 ft | 493 kts | 129° |
| 2026-04-30 18:54 | 48.76694 | -102.34557 | 36104 ft | 493 kts | 130° |
| 2026-04-30 18:55 | 48.72081 | -102.26838 | 36099 ft | 493 kts | 130° |
| 2026-04-30 18:55 | 48.65181 | -102.15274 | 36097 ft | 493 kts | 129° |
| 2026-04-30 18:56 | 48.58316 | -102.03741 | 36081 ft | 493 kts | 129° |
| 2026-04-30 18:57 | 48.51439 | -101.92167 | 36080 ft | 493 kts | 129° |
| 2026-04-30 18:57 | 48.46902 | -101.84518 | 36081 ft | 493 kts | 129° |
| 2026-04-30 18:58 | 48.40049 | -101.72943 | 36059 ft | 493 kts | 129° |
| 2026-04-30 18:59 | 48.33000 | -101.61595 | 36048 ft | 494 kts | 132° |
| 2026-04-30 19:00 | 48.23433 | -101.46821 | 36055 ft | 495 kts | 132° |
| 2026-04-30 19:01 | 48.13753 | -101.32161 | 36049 ft | 495 kts | 133° |
| 2026-04-30 19:02 | 48.06442 | -101.21204 | 36064 ft | 495 kts | 133° |
| 2026-04-30 19:03 | 47.96752 | -101.06661 | 36062 ft | 495 kts | 133° |
| 2026-04-30 19:04 | 47.87046 | -100.92045 | 36067 ft | 495 kts | 133° |
| 2026-04-30 19:05 | 47.77409 | -100.77481 | 36066 ft | 495 kts | 133° |
| 2026-04-30 19:06 | 47.67769 | -100.62866 | 36065 ft | 495 kts | 133° |
| 2026-04-30 19:06 | 47.60552 | -100.51896 | 36069 ft | 495 kts | 132° |
| 2026-04-30 19:07 | 47.53383 | -100.40970 | 36069 ft | 495 kts | 132° |
| 2026-04-30 19:08 | 47.43792 | -100.26305 | 36068 ft | 495 kts | 132° |
| 2026-04-30 19:09 | 47.36633 | -100.15318 | 36069 ft | 495 kts | 132° |
| 2026-04-30 19:09 | 47.31850 | -100.07957 | 36068 ft | 495 kts | 132° |
| 2026-04-30 19:10 | 47.22407 | -99.93320 | 36046 ft | 494 kts | 127° |
| 2026-04-30 19:11 | 47.16837 | -99.80698 | 36053 ft | 491 kts | 119° |
| 2026-04-30 19:12 | 47.13310 | -99.72106 | 36035 ft | 492 kts | 119° |
| 2026-04-30 19:12 | 47.09788 | -99.63460 | 36040 ft | 492 kts | 119° |
| 2026-04-30 19:13 | 47.02804 | -99.46203 | 36018 ft | 493 kts | 118° |
| 2026-04-30 19:14 | 46.99305 | -99.37509 | 36020 ft | 493 kts | 118° |
| 2026-04-30 19:14 | 46.95867 | -99.29066 | 36006 ft | 493 kts | 120° |
| 2026-04-30 19:15 | 46.92122 | -99.20492 | 36012 ft | 493 kts | 121° |
| 2026-04-30 19:15 | 46.86535 | -99.07871 | 35988 ft | 494 kts | 121° |
| 2026-04-30 19:16 | 46.82799 | -98.99437 | 35984 ft | 494 kts | 121° |
| 2026-04-30 19:17 | 46.77207 | -98.86780 | 35978 ft | 494 kts | 121° |
| 2026-04-30 19:17 | 46.71639 | -98.74120 | 35978 ft | 494 kts | 121° |
| 2026-04-30 19:18 | 46.66102 | -98.61466 | 35979 ft | 495 kts | 121° |
| 2026-04-30 19:19 | 46.62414 | -98.52999 | 35980 ft | 495 kts | 121° |
| 2026-04-30 19:19 | 46.56853 | -98.40294 | 35971 ft | 496 kts | 123° |
| 2026-04-30 19:20 | 46.52850 | -98.32222 | 35973 ft | 496 kts | 125° |
| 2026-04-30 19:21 | 46.46675 | -98.20122 | 35966 ft | 496 kts | 126° |
| 2026-04-30 19:22 | 46.38473 | -98.04064 | 35960 ft | 497 kts | 126° |
| 2026-04-30 19:23 | 46.26421 | -97.79652 | 35946 ft | 497 kts | 124° |
| 2026-04-30 19:24 | 46.20490 | -97.67437 | 35944 ft | 497 kts | 124° |
| 2026-04-30 19:25 | 46.11291 | -97.48388 | 35949 ft | 498 kts | 124° |
| 2026-04-30 19:26 | 46.03428 | -97.31984 | 35967 ft | 498 kts | 124° |
| 2026-04-30 19:27 | 45.97533 | -97.19609 | 35978 ft | 499 kts | 124° |
| 2026-04-30 19:28 | 45.91660 | -97.07217 | 35976 ft | 499 kts | 124° |
| 2026-04-30 19:29 | 45.83871 | -96.90689 | 35982 ft | 500 kts | 124° |
| 2026-04-30 19:30 | 45.76144 | -96.74177 | 35973 ft | 500 kts | 123° |
| 2026-04-30 19:31 | 45.68431 | -96.57570 | 35977 ft | 501 kts | 123° |
| 2026-04-30 19:31 | 45.62664 | -96.45075 | 35979 ft | 502 kts | 123° |
| 2026-04-30 19:32 | 45.58845 | -96.36763 | 35989 ft | 502 kts | 123° |
| 2026-04-30 19:32 | 45.55031 | -96.28432 | 35968 ft | 502 kts | 123° |
| 2026-04-30 19:33 | 45.51230 | -96.20100 | 35960 ft | 503 kts | 123° |
| 2026-04-30 19:33 | 45.47403 | -96.11681 | 35950 ft | 503 kts | 123° |
| 2026-04-30 19:34 | 45.43601 | -96.03291 | 35946 ft | 504 kts | 123° |
| 2026-04-30 19:35 | 45.37935 | -95.90738 | 35982 ft | 504 kts | 123° |
| 2026-04-30 19:35 | 45.34160 | -95.82339 | 35983 ft | 504 kts | 123° |
| 2026-04-30 19:36 | 45.30379 | -95.73902 | 35990 ft | 504 kts | 123° |
| 2026-04-30 19:36 | 45.24735 | -95.61260 | 36008 ft | 505 kts | 123° |
| 2026-04-30 19:37 | 45.21009 | -95.52879 | 36008 ft | 505 kts | 123° |
| 2026-04-30 19:37 | 45.17276 | -95.44471 | 35999 ft | 505 kts | 124° |
| 2026-04-30 19:38 | 45.12996 | -95.36580 | 35993 ft | 505 kts | 131° |
| 2026-04-30 19:38 | 45.08477 | -95.28937 | 35976 ft | 505 kts | 131° |
| 2026-04-30 19:39 | 45.03975 | -95.21384 | 35985 ft | 505 kts | 131° |
| 2026-04-30 19:39 | 44.99415 | -95.13744 | 35986 ft | 505 kts | 131° |
| 2026-04-30 19:40 | 44.94911 | -95.06187 | 35986 ft | 506 kts | 131° |
| 2026-04-30 19:40 | 44.90382 | -94.98572 | 35986 ft | 506 kts | 131° |
| 2026-04-30 19:41 | 44.85860 | -94.90952 | 35984 ft | 506 kts | 131° |
| 2026-04-30 19:41 | 44.81352 | -94.83336 | 35989 ft | 506 kts | 131° |
| 2026-04-30 19:42 | 44.76877 | -94.75757 | 35990 ft | 507 kts | 131° |
| 2026-04-30 19:42 | 44.72351 | -94.68076 | 35991 ft | 507 kts | 131° |
| 2026-04-30 19:43 | 44.67893 | -94.60491 | 35988 ft | 507 kts | 131° |
| 2026-04-30 19:44 | 44.61144 | -94.48970 | 35983 ft | 508 kts | 131° |
| 2026-04-30 19:44 | 44.56674 | -94.41315 | 35992 ft | 508 kts | 131° |
| 2026-04-30 19:45 | 44.52205 | -94.33642 | 35987 ft | 508 kts | 131° |
| 2026-04-30 19:45 | 44.47725 | -94.25935 | 35983 ft | 508 kts | 131° |